Cincinnati, Ohio
Traffic Map
Current Weather Conditions
Cincinnati, Ohio
Overcast
Overcast
-1°
Feels Like: -1°
Wind Chill: -1° Ceiling: 2700
Heat Index: -1° Visibility: 10mi
Dew Point: -6° Wind: 0mph
Humidity: 72% Direction: ° ()
Pressure: 30.33in Gusts: 0mph
Raw Report DataKLUK 192253Z 00000KT 10SM OVC027 M01/M06 A3033 RMK AO2 SLP276 T10111056
Traffic Incident Summary
Active as of:
Severity:
Category:
InformationThere was an issue retrieving the traffic information for this location. Please try a different location or try again shortly.
Advertisements
Track Severe Weather on mobile